San Lorenzo, CA

3:13 PM PDT on September 30, 2014 (GMT -0700)
Hayward Executive | Change Station
CLOSE
Current Station
Airport
Location: Hayward,
Elevation: 46 ft
Nearby Weather Stations

Elev 46 ft 37.66 °N, 122.12 °W | Updated 19 minutes ago

Clear
Clear
73 °F
Feels Like 73 °F
N
8
Wind Variable Wind from West

Today
High -- | Low -- °F
--% Chance of Precip.
Yesterday
High -- | Low -- °F
Precip. -- in
7:03 AM 6:52 PM
Waxing Crescent, 40% visible
Pressure 29.91 in
Visibility 10.0 miles
Clouds Clear
Dew Point 57 °F
Humidity 57%
Rainfall 0.00 in
Snow Depth 0 in , 0 in , 0 in
UV 5 out of 12
Pollen 2.80 out of 12
Ozone Good
PM2.5 Good
Flu Activity Not available.
METAR KHWD 302154Z 27007KT 10SM CLR 23/14 A2989 RMK AO2 SLP128 T02280139

More Conditions Fewer Conditions

Pressure 29.91 in
Visibility 10.0 miles
Clouds Clear
Dew Point 57 °F
Humidity 57%
Rainfall 0.00 in
Snow Depth 0 in , 0 in , 0 in
UV 5 out of 12
Pollen 2.80 out of 12
Ozone Good
PM2.5 Good
Flu Activity Not available.
METAR KHWD 302154Z 27007KT 10SM CLR 23/14 A2989 RMK AO2 SLP128 T02280139

More Conditions Fewer Conditions

10-Day Weather Forecast

Almanac

Astronomy

Sep. 30, 2014 Rise Set
Actual Time 7:03 AM PDT 6:52 PM PDT
Civil Twilight 6:37 AM PDT 7:19 PM PDT
Nautical Twilight 6:06 AM PDT 7:49 PM PDT
Astronomical Twilight 5:36 AM PDT 8:19 PM PDT
Moon 1:11 PM PDT 11:33 PM PDT
Length of Visible Light 12h 41m
Length of Day
11h 49m
Tomorrow will be 2m 25s shorter.
Waxing Crescent, 40% of the Moon is Illuminated
Today
Waxing Crescent
Oct 1
First Quarter
Oct 8
Full
Oct 15
Last Quarter
Oct 23
New

Today's Extremes

State Highs State Lows

Community

WunderPhotos

Upload Photos

1,757,767 photos uploaded!

Nearby

Air Quality

  Air Quality AQ Index Pollutant
Yesterday Good
PM2.5
Yesterday Good
OZONE
Current Good
PM2.5
Current Good
OZONE
Tuesday Good
PM2.5
Wednesday Good
PM2.5
Thursday Moderate
PM2.5
Friday Moderate
PM2.5
Saturday Moderate
PM2.5
Sunday Moderate
PM2.5

Snow Depth

Station Depth Elevation
Adin Mountain 0 in 6200 ft
Summit Meadow 0 in 9122 ft
Monitor Pass 0 in 8350 ft
Leavitt Meadows 0 in 7200 ft
CSS Lab 1 in 6900 ft

Earthquake Activity

City Distance Mag. Time & Date
South Dos Palos, California 99 miles 2.8 3:08 PM PDT
2014-09-30
South Dos Palos, California 99 miles 2.5 9:18 PM PDT
2014-09-29
American Canyon, California 37 miles 2.5 12:17 AM PDT
2014-09-29
South Dos Palos, California 100 miles 2.7 8:46 PM PDT
2014-09-28
Minimum magnitude displayed is 2.5.

Coastal Water Temperatures

Place Temperature
No Stations Reporting

Nearby Weather Stations